createdAt,value
2018-01-04T00:01:12.727Z,99805.10
2018-01-04T00:03:41.869Z,99808.40
2018-01-04T00:06:10.195Z,99814.55
2018-01-04T00:08:38.513Z,99814.06
2018-01-04T00:11:06.902Z,99816.63
2018-01-04T00:13:35.219Z,99808.33
2018-01-04T00:16:03.526Z,99803.62
2018-01-04T00:18:31.877Z,99797.17
2018-01-04T00:21:00.263Z,99781.83
2018-01-04T00:23:28.599Z,99794.56
2018-01-04T00:25:56.899Z,99791.83
2018-01-04T00:28:25.210Z,99782.20
2018-01-04T00:30:53.506Z,99780.97
2018-01-04T00:33:21.834Z,99780.13
2018-01-04T00:35:50.135Z,99781.86
2018-01-04T00:38:18.422Z,99786.67
2018-01-04T00:40:46.785Z,99779.90
2018-01-04T00:43:15.138Z,99778.05
2018-01-04T00:45:44.283Z,99771.68
2018-01-04T00:48:12.604Z,99783.68
2018-01-04T00:50:40.900Z,99780.49
2018-01-04T00:53:10.011Z,99766.20
2018-01-04T00:55:39.081Z,99786.86
2018-01-04T00:58:07.389Z,99793.05
2018-01-04T01:00:35.731Z,99786.60
2018-01-04T01:03:04.066Z,99799.20
2018-01-04T01:05:32.456Z,99788.13
2018-01-04T01:08:00.821Z,99796.64
2018-01-04T01:10:29.893Z,99799.61
2018-01-04T01:12:58.197Z,99803.42
2018-01-04T01:15:27.256Z,99813.56
2018-01-04T01:17:55.602Z,99809.23
2018-01-04T01:20:23.923Z,99812.83
2018-01-04T01:22:52.221Z,99814.79
2018-01-04T01:25:20.548Z,99812.94
2018-01-04T01:27:48.854Z,99819.55
2018-01-04T01:30:17.172Z,99821.53
2018-01-04T01:32:45.490Z,99825.45
2018-01-04T01:35:13.793Z,99826.71
2018-01-04T01:37:42.092Z,99830.41
2018-01-04T01:40:10.406Z,99824.89
2018-01-04T01:42:39.482Z,99843.78
2018-01-04T01:45:07.840Z,99834.09
2018-01-04T01:47:36.192Z,99828.69
2018-01-04T01:50:04.628Z,99819.35
2018-01-04T01:52:33.012Z,99830.23
2018-01-04T01:55:01.318Z,99831.41
2018-01-04T01:57:30.402Z,99828.97
2018-01-04T01:59:58.696Z,99826.55
2018-01-04T02:02:27.117Z,99832.66
2018-01-04T02:04:55.405Z,99834.48
2018-01-04T02:07:23.718Z,99828.01
2018-01-04T02:09:52.031Z,99826.75
2018-01-04T02:12:21.157Z,99828.28
2018-01-04T02:14:49.476Z,99833.31
2018-01-04T02:17:17.832Z,99828.50
2018-01-04T02:20:03.885Z,99818.67
2018-01-04T02:22:48.638Z,99812.86
2018-01-04T02:25:35.484Z,99812.95
2018-01-04T02:28:21.764Z,99812.95
2018-01-04T02:31:07.780Z,99821.25
2018-01-04T02:36:57.591Z,99812.53
2018-01-04T02:39:44.392Z,99801.42
2018-01-04T02:45:48.024Z,99800.82
2018-01-04T02:48:16.322Z,99789.03
2018-01-04T02:50:44.641Z,99801.53
2018-01-04T02:53:13.856Z,99800.50
2018-01-04T02:55:42.919Z,99811.11
2018-01-04T02:58:11.254Z,99804.42
2018-01-04T03:00:39.586Z,99804.61
2018-01-04T03:03:07.944Z,99813.44
2018-01-04T03:05:36.252Z,99821.25
2018-01-04T03:08:04.551Z,99807.92
2018-01-04T03:10:32.885Z,99811.41
2018-01-04T03:13:01.224Z,99809.14
2018-01-04T03:15:30.298Z,99816.98
2018-01-04T03:17:58.685Z,99819.29
2018-01-04T03:20:26.976Z,99827.26
2018-01-04T03:23:00.764Z,99806.43
2018-01-04T03:25:34.508Z,99804.88
2018-01-04T03:28:09.049Z,99818.13
2018-01-04T03:30:42.956Z,99805.86
2018-01-04T03:33:16.802Z,99826.44
2018-01-04T03:35:50.626Z,99836.49
2018-01-04T03:38:24.600Z,99839.23
2018-01-04T03:40:58.436Z,99838.63
2018-01-04T03:43:32.243Z,99841.90
2018-01-04T03:46:06.028Z,99846.80
2018-01-04T03:48:34.339Z,99830.45
2018-01-04T03:51:08.172Z,99826.16
2018-01-04T03:53:42.748Z,99831.89
2018-01-04T03:56:17.410Z,99833.98
2018-01-04T03:58:51.104Z,99825.91
2018-01-04T04:01:25.059Z,99823.89
2018-01-04T04:03:53.412Z,99824.44
2018-01-04T04:06:27.261Z,99820.48
2018-01-04T04:08:55.688Z,99818.39
2018-01-04T04:11:23.991Z,99822.45
2018-01-04T04:13:53.074Z,99815.94
2018-01-04T04:16:21.442Z,99818.97
2018-01-04T04:18:49.760Z,99815.52
2018-01-04T04:21:18.881Z,99811.53
2018-01-04T04:23:47.199Z,99829.98
2018-01-04T04:26:15.508Z,99829.00
2018-01-04T04:28:43.835Z,99828.70
2018-01-04T04:31:12.158Z,99820.92
2018-01-04T04:33:40.462Z,99826.84
2018-01-04T04:36:09.597Z,99821.42
2018-01-04T04:38:37.913Z,99818.81
2018-01-04T04:41:06.214Z,99812.77
2018-01-04T04:43:35.316Z,99817.37
2018-01-04T04:46:03.616Z,99812.77
2018-01-04T04:48:32.729Z,99809.09
2018-01-04T04:51:01.057Z,99814.05
2018-01-04T04:53:29.377Z,99803.83
2018-01-04T04:55:58.489Z,99802.41
2018-01-04T04:58:26.799Z,99802.00
2018-01-04T05:00:55.131Z,99803.33
2018-01-04T05:03:24.213Z,99800.45
2018-01-04T05:05:52.561Z,99803.02
2018-01-04T05:08:21.645Z,99794.39
2018-01-04T05:10:49.947Z,99791.08
2018-01-04T05:13:18.306Z,99789.02
2018-01-04T05:15:46.626Z,99775.10
2018-01-04T05:18:15.547Z,99774.29
2018-01-04T05:20:43.848Z,99771.63
2018-01-04T05:23:12.141Z,99772.23
2018-01-04T05:25:40.464Z,99781.95
2018-01-04T05:28:08.748Z,99777.23
2018-01-04T05:30:37.080Z,99778.34
2018-01-04T05:33:05.415Z,99766.27
2018-01-04T05:35:33.730Z,99767.70
2018-01-04T05:38:02.803Z,99773.84
2018-01-04T05:40:31.103Z,99772.41
2018-01-04T05:43:00.181Z,99776.59
2018-01-04T05:45:28.967Z,99777.21
2018-01-04T05:47:57.289Z,99771.78
2018-01-04T05:50:26.388Z,99769.42
2018-01-04T05:52:55.488Z,99762.77
2018-01-04T05:55:24.553Z,99763.52
2018-01-04T05:57:52.865Z,99757.97
2018-01-04T06:00:21.959Z,99762.77
2018-01-04T06:02:51.032Z,99761.85
2018-01-04T06:05:19.335Z,99762.37
2018-01-04T06:07:48.409Z,99759.70
2018-01-04T06:10:16.733Z,99763.48
2018-01-04T06:12:45.068Z,99770.03
2018-01-04T06:15:13.367Z,99766.75
2018-01-04T06:17:41.677Z,99762.23
2018-01-04T06:20:09.995Z,99759.16
2018-01-04T06:22:38.309Z,99738.98
2018-01-04T06:25:06.701Z,99747.48
2018-01-04T06:27:35.013Z,99732.34
2018-01-04T06:30:03.323Z,99738.89
2018-01-04T06:32:31.625Z,99731.42
2018-01-04T06:34:59.959Z,99731.12
2018-01-04T06:37:29.099Z,99737.89
2018-01-04T06:39:57.412Z,99748.73
2018-01-04T06:42:25.723Z,99749.14
2018-01-04T06:44:54.095Z,99756.89
2018-01-04T06:47:23.191Z,99773.95
2018-01-04T06:49:52.267Z,99761.02
2018-01-04T06:52:20.567Z,99758.44
2018-01-04T06:54:49.697Z,99768.85
2018-01-04T06:57:18.024Z,99757.95
2018-01-04T06:59:46.330Z,99761.73
2018-01-04T07:02:15.399Z,99765.72
2018-01-04T07:04:43.737Z,99770.94
2018-01-04T07:07:12.057Z,99773.28
2018-01-04T07:09:41.226Z,99771.22
2018-01-04T07:12:09.543Z,99760.34
2018-01-04T07:14:37.841Z,99756.23
2018-01-04T07:17:07.021Z,99753.88
2018-01-04T07:19:35.383Z,99755.72
2018-01-04T07:22:03.703Z,99751.95
2018-01-04T07:24:32.032Z,99754.09
2018-01-04T07:27:00.423Z,99742.00
2018-01-04T07:29:28.733Z,99737.59
2018-01-04T07:31:57.087Z,99728.30
2018-01-04T07:34:25.406Z,99733.63
2018-01-04T07:36:53.768Z,99727.18
2018-01-04T07:39:22.876Z,99725.25
2018-01-04T07:41:51.195Z,99721.66
2018-01-04T07:44:20.271Z,99713.67
2018-01-04T07:46:48.593Z,99711.12
2018-01-04T07:49:16.921Z,99706.09
2018-01-04T07:51:45.292Z,99710.20
2018-01-04T07:54:13.620Z,99716.64
2018-01-04T07:56:42.003Z,99722.78
2018-01-04T07:59:11.103Z,99715.52
2018-01-04T08:01:40.183Z,99707.75
2018-01-04T08:04:08.547Z,99712.26
2018-01-04T08:06:36.940Z,99710.71
2018-01-04T08:09:05.260Z,99708.64
2018-01-04T08:11:34.341Z,99707.91
2018-01-04T08:14:02.710Z,99702.95
2018-01-04T08:16:31.018Z,99702.12
2018-01-04T08:19:00.119Z,99704.02
2018-01-04T08:21:29.190Z,99708.09
2018-01-04T08:23:57.484Z,99697.65
2018-01-04T08:26:26.579Z,99699.06
2018-01-04T08:28:55.141Z,99702.21
2018-01-04T08:31:23.533Z,99695.19
2018-01-04T08:33:51.862Z,99686.97
2018-01-04T08:36:20.216Z,99693.20
2018-01-04T08:38:48.542Z,99700.34
2018-01-04T08:41:16.955Z,99690.39
2018-01-04T08:43:45.267Z,99685.84
2018-01-04T08:46:13.569Z,99689.88
2018-01-04T08:48:42.677Z,99686.36
2018-01-04T08:51:11.039Z,99674.74
2018-01-04T08:53:40.121Z,99671.27
2018-01-04T08:56:08.443Z,99663.86
2018-01-04T08:58:36.809Z,99655.94
2018-01-04T09:01:05.912Z,99658.56
2018-01-04T09:03:35.082Z,99657.71
2018-01-04T09:06:03.539Z,99662.23
2018-01-04T09:08:31.845Z,99657.90
2018-01-04T09:11:00.193Z,99659.34
2018-01-04T09:13:28.515Z,99656.38
2018-01-04T09:15:56.827Z,99650.64
2018-01-04T09:18:25.892Z,99656.38
2018-01-04T09:20:54.217Z,99662.20
2018-01-04T09:23:22.553Z,99653.34
2018-01-04T09:25:50.907Z,99638.38
2018-01-04T09:28:19.192Z,99631.52
2018-01-04T09:30:47.505Z,99623.00
2018-01-04T09:33:15.803Z,99622.66
2018-01-04T09:35:44.881Z,99622.73
2018-01-04T09:38:13.189Z,99615.84
2018-01-04T09:40:42.258Z,99619.28
2018-01-04T09:43:10.613Z,99610.00
2018-01-04T09:45:38.947Z,99591.23
2018-01-04T09:48:07.265Z,99589.36
2018-01-04T09:50:35.575Z,99586.53
2018-01-04T09:53:03.881Z,99605.73
2018-01-04T09:55:32.187Z,99605.78
2018-01-04T09:58:01.420Z,99602.70
2018-01-04T10:00:29.750Z,99604.67
2018-01-04T10:02:58.847Z,99593.82
2018-01-04T10:05:27.191Z,99599.09
2018-01-04T10:07:55.495Z,99594.47
2018-01-04T10:10:23.836Z,99597.59
2018-01-04T10:12:52.156Z,99583.89
2018-01-04T10:15:20.482Z,99588.78
2018-01-04T10:17:49.555Z,99584.07
2018-01-04T10:20:17.913Z,99582.28
2018-01-04T10:22:46.281Z,99581.48
2018-01-04T10:25:14.571Z,99571.61
2018-01-04T10:27:42.888Z,99567.85
2018-01-04T10:30:11.213Z,99573.47
2018-01-04T10:32:39.518Z,99573.36
2018-01-04T10:35:07.820Z,99559.77
2018-01-04T10:37:36.196Z,99554.34
2018-01-04T10:40:04.536Z,99546.28
2018-01-04T10:42:32.886Z,99542.05
2018-01-04T10:45:01.983Z,99538.44
2018-01-04T10:47:31.110Z,99533.56
2018-01-04T10:49:59.423Z,99525.91
2018-01-04T10:52:27.752Z,99517.40
2018-01-04T10:54:56.829Z,99514.55
2018-01-04T10:57:25.149Z,99508.39
2018-01-04T10:59:53.453Z,99497.16
2018-01-04T11:02:21.785Z,99491.31
2018-01-04T11:04:50.108Z,99483.70
2018-01-04T11:07:18.430Z,99472.88
2018-01-04T11:09:46.763Z,99466.03
2018-01-04T11:12:15.135Z,99458.89
2018-01-04T11:14:44.194Z,99457.20
2018-01-04T11:17:12.566Z,99443.70
2018-01-04T11:19:41.546Z,99444.23
2018-01-04T11:22:09.849Z,99440.14
2018-01-04T11:24:38.174Z,99452.23
2018-01-04T11:27:07.268Z,99444.16
2018-01-04T11:29:36.335Z,99430.69
2018-01-04T11:32:04.692Z,99427.54
2018-01-04T11:34:33.013Z,99425.37
2018-01-04T11:37:01.332Z,99415.16
2018-01-04T11:39:29.625Z,99412.22
2018-01-04T11:41:57.925Z,99404.83
2018-01-04T11:44:26.517Z,99397.00
2018-01-04T11:46:54.847Z,99389.99
2018-01-04T11:49:24.021Z,99377.73
2018-01-04T11:51:52.471Z,99385.05
2018-01-04T11:54:20.813Z,99376.03
2018-01-04T11:56:49.906Z,99372.38
2018-01-04T11:59:18.207Z,99363.16
2018-01-04T12:01:46.529Z,99366.99
2018-01-04T12:04:14.848Z,99355.77
2018-01-04T12:06:44.055Z,99360.47
2018-01-04T12:09:13.185Z,99351.83
2018-01-04T12:11:41.492Z,99349.58
2018-01-04T12:14:09.822Z,99343.83
2018-01-04T12:16:38.919Z,99338.37
2018-01-04T12:19:07.992Z,99330.48
2018-01-04T12:21:36.302Z,99318.02
2018-01-04T12:24:05.378Z,99298.23
2018-01-04T12:26:33.734Z,99294.47
2018-01-04T12:29:02.086Z,99291.20
2018-01-04T12:31:30.420Z,99278.86
2018-01-04T12:33:58.736Z,99276.19
2018-01-04T12:36:27.812Z,99279.48
2018-01-04T12:38:56.127Z,99258.53
2018-01-04T12:41:24.470Z,99257.44
2018-01-04T12:43:52.792Z,99247.45
2018-01-04T12:46:21.107Z,99236.08
2018-01-04T12:48:49.436Z,99230.13
2018-01-04T12:51:18.536Z,99220.72
2018-01-04T12:53:47.621Z,99209.37
2018-01-04T12:56:15.998Z,99189.95
2018-01-04T12:58:45.094Z,99178.76
2018-01-04T13:01:13.448Z,99171.39
2018-01-04T13:03:41.769Z,99170.16
2018-01-04T13:06:10.102Z,99163.49
2018-01-04T13:08:38.444Z,99157.06
2018-01-04T13:11:07.554Z,99157.23
2018-01-04T13:13:36.677Z,99160.30
2018-01-04T13:16:05.052Z,99154.99
2018-01-04T13:18:33.351Z,99148.09
2018-01-04T13:21:01.678Z,99132.06
2018-01-04T13:23:30.786Z,99122.91
2018-01-04T13:25:59.881Z,99116.26
2018-01-04T13:28:28.201Z,99116.72
2018-01-04T13:30:56.653Z,99115.23
2018-01-04T13:33:25.739Z,99108.05
2018-01-04T13:35:54.057Z,99099.09
2018-01-04T13:38:22.367Z,99101.63
2018-01-04T13:40:50.737Z,99099.32
2018-01-04T13:43:19.077Z,99092.18
2018-01-04T13:45:48.163Z,99088.91
2018-01-04T13:48:16.525Z,99085.06
2018-01-04T13:50:44.853Z,99094.83
2018-01-04T13:53:13.954Z,99083.23
2018-01-04T13:55:42.271Z,99076.50
2018-01-04T13:58:10.566Z,99074.36
2018-01-04T14:00:38.882Z,99077.26
2018-01-04T14:03:07.967Z,99066.27
2018-01-04T14:05:36.269Z,99064.64
2018-01-04T14:08:05.409Z,99068.81
2018-01-04T14:10:33.882Z,99056.92
2018-01-04T14:13:02.249Z,99062.42
2018-01-04T14:15:31.333Z,99059.70
2018-01-04T14:17:59.646Z,99054.99
2018-01-04T14:20:27.984Z,99050.13
2018-01-04T14:22:56.326Z,99054.82
2018-01-04T14:25:24.641Z,99048.77
2018-01-04T14:27:52.943Z,99042.28
2018-01-04T14:30:21.232Z,99040.26
2018-01-04T14:32:50.318Z,99034.08
2018-01-04T14:35:18.619Z,99032.40
2018-01-04T14:37:48.639Z,99026.48
2018-01-04T14:40:16.969Z,99014.20
2018-01-04T14:42:46.098Z,99009.77
2018-01-04T14:45:15.182Z,98999.50
2018-01-04T14:47:43.484Z,98991.22
2018-01-04T14:50:12.552Z,98997.09
2018-01-04T14:52:40.932Z,98988.19
2018-01-04T14:55:09.231Z,98982.19
2018-01-04T14:57:37.537Z,98965.74
2018-01-04T15:00:06.616Z,98981.78
2018-01-04T15:02:34.988Z,98971.37
2018-01-04T15:05:03.304Z,98976.05
2018-01-04T15:07:32.431Z,98969.36
2018-01-04T15:10:00.803Z,98969.09
2018-01-04T15:12:29.107Z,98962.69
2018-01-04T15:14:57.429Z,98958.13
2018-01-04T15:17:25.745Z,98968.40
2018-01-04T15:19:54.057Z,98962.75
2018-01-04T15:22:22.367Z,98964.03
2018-01-04T15:24:50.718Z,98953.28
2018-01-04T15:27:19.067Z,98952.23
2018-01-04T15:29:48.143Z,98948.27
2018-01-04T15:32:16.516Z,98942.81
2018-01-04T15:34:44.846Z,98942.20
2018-01-04T15:37:13.186Z,98942.80
2018-01-04T15:39:41.536Z,98927.58
2018-01-04T15:42:09.881Z,98930.23
2018-01-04T15:44:39.001Z,98941.58
2018-01-04T15:47:07.347Z,98925.98
2018-01-04T15:49:35.687Z,98927.84
2018-01-04T15:52:04.040Z,98926.22
2018-01-04T15:54:32.348Z,98915.05
2018-01-04T15:57:00.678Z,98917.25
2018-01-04T15:59:29.767Z,98917.66
2018-01-04T16:01:58.149Z,98910.81
2018-01-04T16:04:26.504Z,98895.59
2018-01-04T16:06:54.847Z,98898.66
2018-01-04T16:09:23.236Z,98883.56
2018-01-04T16:11:51.575Z,98899.89
2018-01-04T16:14:19.900Z,98897.05
2018-01-04T16:16:48.249Z,98888.81
2018-01-04T16:19:16.565Z,98907.56
2018-01-04T16:21:44.886Z,98901.34
2018-01-04T16:24:13.481Z,98892.02
2018-01-04T16:26:41.810Z,98897.39
2018-01-04T16:29:10.247Z,98889.37
2018-01-04T16:31:38.565Z,98878.65
2018-01-04T16:34:07.699Z,98882.52
2018-01-04T16:36:36.026Z,98888.39
2018-01-04T16:39:04.395Z,98883.05
2018-01-04T16:41:32.710Z,98879.02
2018-01-04T16:44:01.827Z,98881.03
2018-01-04T16:46:30.162Z,98887.98
2018-01-04T16:49:00.048Z,98878.25
2018-01-04T16:51:28.428Z,98886.29
2018-01-04T16:53:56.755Z,98876.94
2018-01-04T16:56:25.074Z,98897.02
2018-01-04T16:58:53.392Z,98875.47
2018-01-04T17:01:21.704Z,98879.36
2018-01-04T17:03:50.047Z,98882.30
2018-01-04T17:06:18.381Z,98896.91
2018-01-04T17:08:46.739Z,98920.61
2018-01-04T17:11:15.062Z,98896.13
2018-01-04T17:13:43.378Z,98906.64
2018-01-04T17:16:11.739Z,98893.84
2018-01-04T17:18:40.103Z,98887.62
2018-01-04T17:21:08.457Z,98886.67
2018-01-04T17:23:37.603Z,98893.03
2018-01-04T17:26:06.876Z,98892.96
2018-01-04T17:28:35.981Z,98901.20
2018-01-04T17:31:05.284Z,98896.92
2018-01-04T17:33:33.619Z,98904.41
2018-01-04T17:36:02.008Z,98908.45
2018-01-04T17:38:30.305Z,98929.95
2018-01-04T17:40:58.626Z,98912.18
2018-01-04T17:43:27.619Z,98910.29
2018-01-04T17:45:55.929Z,98910.54
2018-01-04T17:48:24.251Z,98913.49
2018-01-04T17:50:52.574Z,98926.45
2018-01-04T17:53:20.976Z,98938.32
2018-01-04T17:55:49.348Z,98917.63
2018-01-04T18:00:52.391Z,98934.03
2018-01-04T18:03:20.775Z,98921.00
2018-01-04T18:05:49.111Z,98931.81
2018-01-04T18:08:17.442Z,98932.22
2018-01-04T18:10:46.088Z,98938.91
2018-01-04T18:13:14.415Z,98941.98
2018-01-04T18:15:42.758Z,98956.28
2018-01-04T18:18:11.084Z,98935.02
2018-01-04T18:20:40.264Z,98953.45
2018-01-04T18:23:08.714Z,98962.09
2018-01-04T18:25:37.083Z,98968.34
2018-01-04T18:28:06.186Z,98951.47
2018-01-04T18:30:35.313Z,98956.79
2018-01-04T18:33:03.783Z,98966.23
2018-01-04T18:35:32.121Z,98963.94
2018-01-04T18:38:00.505Z,98964.31
2018-01-04T18:40:28.982Z,98953.34
2018-01-04T18:42:57.364Z,98975.52
2018-01-04T18:45:26.062Z,98966.17
2018-01-04T18:47:54.385Z,98961.17
2018-01-04T18:50:22.784Z,98992.92
2018-01-04T18:52:51.175Z,98979.84
2018-01-04T18:55:19.512Z,98966.13
2018-01-04T18:57:48.662Z,98975.50
2018-01-04T19:00:17.021Z,98989.73
2018-01-04T19:02:45.457Z,98990.02
2018-01-04T19:05:13.771Z,98992.09
2018-01-04T19:07:42.901Z,98989.75
2018-01-04T19:10:11.888Z,99012.97
2018-01-04T19:12:40.215Z,98999.05
2018-01-04T19:15:08.579Z,98990.97
2018-01-04T19:17:36.884Z,99010.66
2018-01-04T19:20:06.383Z,99015.14
2018-01-04T19:22:35.537Z,99024.97
2018-01-04T19:25:04.007Z,99040.94
2018-01-04T19:27:32.403Z,99036.38
2018-01-04T19:30:00.731Z,99037.67
2018-01-04T19:32:29.908Z,99046.25
2018-01-04T19:34:58.387Z,99052.96
2018-01-04T19:37:26.838Z,99075.45
2018-01-04T19:39:55.203Z,99044.38
2018-01-04T19:42:24.371Z,99063.72
2018-01-04T19:44:52.692Z,99056.52
2018-01-04T19:47:21.121Z,99089.36
2018-01-04T19:49:49.599Z,99079.33
2018-01-04T19:52:17.977Z,99095.47
2018-01-04T19:54:46.343Z,99104.29
2018-01-04T19:57:14.868Z,99093.86
2018-01-04T19:59:43.667Z,99112.74
2018-01-04T20:02:12.023Z,99121.16
2018-01-04T20:04:40.387Z,99129.08
2018-01-04T20:07:09.689Z,99119.97
2018-01-04T20:09:38.088Z,99142.57
2018-01-04T20:12:06.554Z,99133.99
2018-01-04T20:14:35.715Z,99136.55
2018-01-04T20:17:04.060Z,99155.63
2018-01-04T20:19:32.420Z,99163.34
2018-01-04T20:22:01.027Z,99160.73
2018-01-04T20:24:29.394Z,99162.34
2018-01-04T20:26:58.531Z,99172.07
2018-01-04T20:29:26.901Z,99162.28
2018-01-04T20:31:55.800Z,99189.20
2018-01-04T20:34:24.304Z,99188.17
2018-01-04T20:36:52.668Z,99179.94
2018-01-04T20:39:20.986Z,99204.13
2018-01-04T20:41:49.605Z,99179.77
2018-01-04T20:44:17.950Z,99190.03
2018-01-04T20:46:46.558Z,99194.05
2018-01-04T20:49:15.766Z,99198.12
2018-01-04T20:51:45.392Z,99206.12
2018-01-04T20:54:14.208Z,99195.78
2018-01-04T20:56:42.733Z,99219.38
2018-01-04T20:59:11.224Z,99223.05
2018-01-04T21:01:40.476Z,99213.00
2018-01-04T21:04:09.135Z,99218.22
2018-01-04T21:06:38.351Z,99218.84
2018-01-04T21:09:06.724Z,99233.84
2018-01-04T21:11:35.268Z,99241.67
2018-01-04T21:14:03.570Z,99243.78
2018-01-04T21:16:31.924Z,99247.03
2018-01-04T21:19:00.256Z,99241.98
2018-01-04T21:21:28.564Z,99239.35
2018-01-04T21:23:57.640Z,99232.66
2018-01-04T21:26:26.723Z,99232.16
2018-01-04T21:28:55.108Z,99234.59
2018-01-04T21:31:23.558Z,99234.98
2018-01-04T21:33:52.163Z,99246.34
2018-01-04T21:36:20.639Z,99244.69
2018-01-04T21:38:49.615Z,99261.47
2018-01-04T21:41:17.939Z,99257.00
2018-01-04T21:43:46.302Z,99262.37
2018-01-04T21:46:14.818Z,99283.23
2018-01-04T21:48:43.343Z,99277.96
2018-01-04T21:51:11.736Z,99276.61
2018-01-04T21:53:40.049Z,99287.56
2018-01-04T21:56:08.316Z,99295.14
2018-01-04T21:58:36.642Z,99292.64
2018-01-04T22:01:04.935Z,99303.41
2018-01-04T22:03:33.987Z,99299.12
2018-01-04T22:06:02.648Z,99331.60
2018-01-04T22:08:30.948Z,99328.65
2018-01-04T22:10:59.244Z,99333.91
2018-01-04T22:13:27.633Z,99321.59
2018-01-04T22:15:56.032Z,99334.38
2018-01-04T22:18:25.127Z,99333.04
2018-01-04T22:20:53.512Z,99336.06
2018-01-04T22:23:22.607Z,99334.26
2018-01-04T22:25:50.971Z,99314.82
2018-01-04T22:28:19.307Z,99309.83
2018-01-04T22:30:47.636Z,99305.30
2018-01-04T22:33:15.971Z,99295.95
2018-01-04T22:35:45.116Z,99311.03
2018-01-04T22:38:13.412Z,99303.39
2018-01-04T22:40:41.732Z,99308.59
2018-01-04T22:43:10.799Z,99302.87
2018-01-04T22:45:39.095Z,99317.03
2018-01-04T22:48:07.458Z,99321.06
2018-01-04T22:50:35.857Z,99331.16
2018-01-04T22:53:04.132Z,99328.02
2018-01-04T22:55:33.235Z,99327.91
2018-01-04T22:58:02.420Z,99334.66
2018-01-04T23:00:30.764Z,99324.02
2018-01-04T23:02:59.079Z,99329.53
2018-01-04T23:05:27.412Z,99337.33
2018-01-04T23:07:56.496Z,99332.30
2018-01-04T23:10:25.876Z,99337.44
2018-01-04T23:12:54.184Z,99341.54
2018-01-04T23:15:23.266Z,99363.56
2018-01-04T23:17:51.589Z,99341.91
2018-01-04T23:20:19.910Z,99354.00
2018-01-04T23:22:48.208Z,99346.67
2018-01-04T23:25:18.104Z,99341.61
2018-01-04T23:27:46.391Z,99361.39
2018-01-04T23:30:14.732Z,99351.55
2018-01-04T23:32:43.108Z,99360.31
2018-01-04T23:35:12.179Z,99364.12
2018-01-04T23:37:40.561Z,99366.71
2018-01-04T23:40:10.378Z,99357.54
2018-01-04T23:42:38.692Z,99368.73
2018-01-04T23:45:07.061Z,99365.19
2018-01-04T23:47:36.170Z,99376.20
2018-01-04T23:50:05.478Z,99381.25
2018-01-04T23:52:34.560Z,99386.69
2018-01-04T23:55:03.630Z,99386.20
2018-01-04T23:57:31.968Z,99387.78
